Terminal Aerodrome Forecast
Issued by NWS Cleveland, OH

Home | Current Version | Previous Version | Graphics & Text | Print | Product List | Glossary On
Versions: 1 2 3 4 5 6 7 8 9 10 11 12 13 14 15 16
000
FTUS41 KCLE 261700
TAFCAK
TAF
KCAK 261739Z 2618/2718 36010KT 1SM -SN OVC020
     FM262130 36010KT 5SM -SN OVC025
     FM262300 34006KT P6SM BKN025 BKN070
     FM270700 32004KT P6SM SCT025
     FM271400 27006KT P6SM SKC=

USA.gov is the U.S. government's official web portal to all federal, state and local government web resources and services.